Airfield :
LOGIN :

Register | Disclaimer

   EN    FR    IT 

 










Legend :    VFR   Marginal VFR   IFR   Intensive IFR   Very Intensive IFR
Visi :
Ceiling :
>= 8 km
>= 3000ft
5 to 8 km
1000 to 3000 ft
1500m to 5 km
500 to 1000 ft
800 to 1500m
200 to 500 ft
< 800m
< 200 ft
Symbols :   Thunderstorms  Fog  Heavy snow  Heavy precipitations  Wind > 20 kt
SIGMETs :     Misc.  Thunderstorms  Icing  Turbulence  Mountain Waves  Volcanic Ashes







- Airport Elevation : 1300 ft
- IATA code : LIG
- Download approach charts


LFBL - Limoges

CURRENT METAR :
  • 210800Z AUTO 36007KT 1300 1200 R21/1700U R03/2400N BR VV/// 01/01 Q1019 BECMG 9999 NSW BKN007

EXPIRED METARs :
  • 210730Z AUTO 36005KT 330V030 1500 1100 R21/2400D R03/2600D BR VV/// 01/01 Q1019 BECMG 9999 NSW BKN007
  • 210700Z AUTO 03006KT 300V060 2100 BR VV/// 01/01 Q1019 BECMG 9999 NSW BKN007
  • 210630Z AUTO 36006KT 320V030 4000 BR OVC002 01/01 Q1019 TEMPO VV/// BECMG 9999 NSW
  • 210600Z AUTO 35007KT 320V030 3500 BR OVC002 01/01 Q1019 TEMPO 0800 BCFG VV///
  • 210530Z AUTO 36007KT 320V040 3600 BR VV/// 01/01 Q1019 TEMPO 0800 BCFG
  • 210500Z AUTO 36007KT 330V030 5000 BR OVC002 02/01 Q1018 TEMPO 0800 BCFG VV///

TAF TAF LFBL
Valid from the 21 at 06:00 until the 22 at 06:00 UTC


210500Z 2106/2206 36007KT 9999 BKN007
TEMPO 2106/2108 3000 BR OVC002
PROB30
TEMPO 2106/2108 0800 BCFG VV///
BECMG 2110/2112 BKN015
TEMPO 2116/2121 CAVOK
BECMG 2121/2123 VRB02KT 3000 BR
TEMPO 2123/2206 0500 FG VV///
ATIS : +33 5 55 48 40 37
No reported NOTAMs for that airfield.



MET'MAP, your aeronautical weather chart ! - Copyright ORBIFLY December 2007 - Disclaimer

ORBIFLY MET'MAP TEAM :

Programming & Development : Alexandra Zaïnal
Concept & Development : Baudouin d'Aumeries
Co-Development & Prog : Marc-Olivier Méhu
Technical & hardware support : Manuel Goepfert

Contact : metmap@orbifly.com




SOURCES & CREDITS :

   NOAA